Latest Weather Observations for Devonport Airport

IDT60801

Issued at 12:51 pm EDT Sunday 26 January 2020 (issued every 10 minutes, with the page automatically refreshed every 10 minutes)

About weather observations | Map of weather stations | Latest weather observations for TAS | Other Formats
Station Details ID: 091126 Name: DEVONPORT AIRPORT Lat: -41.17 Lon: 146.43 Height: 8.0 m
Data from the previous 72 hours. | See also: Recent months at Devonport Airport
Date/Time
EDT
Temp
°C
App
Temp
°C
Dew
Point
°C
Rel
Hum
%
Delta-T
°C
Wind Press
QNH
hPa
Press
MSL
hPa
Rain since
9am
mm
Dir  Spd
km/h
Gust
km/h
Spd
kts
Gust
kts
26/12:41pm 21.1 14.1 10.0 49 6.0 W 37 50 20 27 1010.0 1010.0 0.0
26/12:30pm 22.2 15.2 11.3 50 6.1 WNW 39 54 21 29 1009.8 1009.8 0.0
26/12:00pm 20.0 15.3 13.2 65 3.9 NW 30 39 16 21 1010.0 1010.0 0.0
26/11:30am 20.6 15.3 13.1 62 4.3 W 33 44 18 24 1010.2 1010.2 0.0
26/11:07am 20.4 15.0 12.9 62 4.3 WNW 33 50 18 27 1010.3 1010.3 0.0
26/11:00am 20.1 16.0 15.9 77 2.5 WNW 32 41 17 22 1010.4 1010.4 0.0
26/10:55am 18.8 14.0 15.5 81 1.9 WNW 35 46 19 25 1010.4 1010.4 0.0
26/10:30am 17.8 12.9 16.3 91 0.9 NW 37 43 20 23 1010.4 1010.4 0.0
26/10:00am 17.5 12.9 16.0 91 0.9 NW 35 44 19 24 1010.3 1010.3 0.0
26/09:30am 17.6 13.4 16.3 92 0.8 NW 33 43 18 23 1010.4 1010.4 0.0
26/09:00am 17.2 13.4 16.6 96 0.4 NW 32 44 17 24 1010.4 1010.4 0.0
26/08:47am 16.9 12.9 16.6 98 0.2 NW 33 41 18 22 1010.5 1010.5 0.0
26/08:30am 16.9 13.4 16.6 98 0.2 NW 30 35 16 19 1010.4 1010.4 0.0
26/08:29am 16.9 13.4 16.6 98 0.2 NW 30 35 16 19 1010.4 1010.4 0.0
26/08:00am 17.0 13.1 16.4 96 0.4 NW 32 39 17 21 1010.3 1010.3 0.0
26/07:30am 17.0 13.8 16.4 96 0.4 NW 28 35 15 19 1010.2 1010.2 0.0
26/07:00am 16.7 13.1 16.2 97 0.3 NW 30 37 16 20 1010.3 1010.3 0.0
26/06:30am 16.7 13.2 16.4 98 0.2 NW 30 39 16 21 1010.3 1010.3 0.0
26/06:00am 16.6 13.1 16.4 99 0.1 NW 30 39 16 21 1010.2 1010.2 0.0
26/05:42am 16.4 12.4 16.2 99 0.1 NW 32 39 17 21 1010.0 1010.0 0.0
26/05:30am 16.4 12.4 16.2 99 0.1 NW 32 39 17 21 1010.1 1010.1 0.0
26/05:21am 16.4 12.4 16.2 99 0.1 NW 32 39 17 21 1010.0 1010.0 0.0
26/05:19am 16.5 12.9 16.3 99 0.1 NW 30 39 16 21 1010.0 1010.0 0.0
26/05:00am 16.6 12.7 16.4 99 0.1 NW 32 41 17 22 1010.0 1010.0 0.0
26/04:56am 16.5 12.9 16.3 99 0.1 NW 30 41 16 22 1010.0 1010.0 0.0
26/04:55am 16.6 13.4 16.4 99 0.1 NW 28 41 15 22 1010.0 1010.0 0.0
26/04:32am 16.9 13.8 16.6 98 0.2 NW 28 35 15 19 1010.0 1010.0 0.0
26/04:30am 16.9 13.7 16.4 97 0.3 NW 28 35 15 19 1010.1 1010.1 0.0
26/04:00am 17.0 14.4 16.0 94 0.6 NW 24 32 13 17 1010.0 1010.0 0.0
26/03:30am 17.0 14.1 16.2 95 0.5 NW 26 33 14 18 1010.2 1010.2 0.0
26/03:17am 17.0 13.8 16.2 95 0.5 NW 28 33 15 18 1010.2 1010.2 0.0
26/03:00am 16.8 13.9 16.2 96 0.4 NW 26 33 14 18 1010.3 1010.3 0.0
26/02:45am 16.8 13.9 16.2 96 0.4 NW 26 32 14 17 1010.3 1010.3 0.0
26/02:30am 16.8 13.2 16.2 96 0.4 WNW 30 35 16 19 1010.6 1010.6 0.0
26/02:00am 17.0 14.3 16.5 97 0.3 NW 26 32 14 17 1011.0 1011.0 0.0
26/01:30am 16.9 14.2 16.7 99 0.1 NW 26 33 14 18 1011.2 1011.2 0.0
26/01:01am 16.9 14.6 16.7 99 0.1 NW 24 32 13 17 1011.4 1011.4 0.0
26/01:00am 16.9 14.6 16.7 99 0.1 NW 24 32 13 17 1011.4 1011.4 0.0
26/12:45am 16.9 14.2 16.7 99 0.1 NW 26 33 14 18 1011.5 1011.5 0.0
26/12:42am 17.0 14.4 16.8 99 0.1 NW 26 30 14 16 1011.6 1011.6 0.0
26/12:30am 16.8 14.1 16.6 99 0.1 NW 26 32 14 17 1011.7 1011.7 0.0
26/12:15am 17.0 14.4 16.8 99 0.1 NW 26 33 14 18 1011.7 1011.7 0.0
26/12:07am 17.0 14.8 16.8 99 0.1 NNW 24 32 13 17 1011.8 1011.8 0.0
26/12:00am 17.0 14.8 16.8 99 0.1 NNW 24 32 13 17 1011.8 1011.8 0.0
 
Date/Time
EDT
Temp
°C
App
Temp
°C
Dew
Point
°C
Rel
Hum
%
Delta-T
°C
Wind Press
QNH
hPa
Press
MSL
hPa
Rain since
9am
mm
Dir  Spd
km/h
Gust
km/h
Spd
kts
Gust
kts
25/11:38pm 17.0 14.3 16.7 98 0.2 NNW 26 32 14 17 1012.0 1012.0 0.0
25/11:30pm 17.2 14.5 16.7 97 0.3 NNW 26 35 14 19 1011.9 1011.9 0.0
25/11:00pm 17.2 14.2 16.7 97 0.3 NW 28 35 15 19 1012.2 1012.2 0.0
25/10:30pm 17.1 14.0 16.6 97 0.3 NW 28 33 15 18 1012.3 1012.3 0.0
25/10:00pm 17.3 14.2 16.5 95 0.5 NW 28 37 15 20 1012.3 1012.3 0.0
25/09:30pm 17.2 14.1 16.6 96 0.4 NW 28 35 15 19 1012.1 1012.1 0.0
25/09:00pm 17.1 14.0 16.5 96 0.4 NW 28 35 15 19 1011.7 1011.7 0.0
25/08:30pm 17.2 13.7 16.4 95 0.5 NW 30 37 16 20 1011.5 1011.5 0.0
25/08:00pm 17.2 13.6 16.2 94 0.6 NW 30 37 16 20 1011.3 1011.3 0.0
25/07:30pm 17.3 14.1 16.2 93 0.7 NW 28 37 15 20 1011.1 1011.1 0.0
25/07:00pm 17.2 13.9 16.1 93 0.7 NNW 28 35 15 19 1010.9 1010.9 0.0
25/06:30pm 17.2 13.2 16.1 93 0.7 NNW 32 41 17 22 1010.9 1010.9 0.0
25/06:00pm 17.6 13.5 15.9 90 1.0 NW 32 39 17 21 1010.9 1010.9 0.0
25/05:30pm 17.9 13.8 15.9 88 1.2 NW 32 39 17 21 1011.1 1011.1 0.0
25/05:05pm 18.0 13.6 15.6 86 1.4 NW 33 43 18 23 1011.1 1011.1 0.0
25/05:00pm 18.2 13.3 15.3 83 1.7 NW 35 43 19 23 1011.1 1011.1 0.0
25/04:30pm 18.3 13.7 15.2 82 1.8 NW 33 43 18 23 1011.3 1011.3 0.0
25/04:19pm 19.1 14.9 15.8 81 2.0 NW 32 39 17 21 1011.4 1011.4 0.0
25/04:05pm 18.3 13.8 15.0 81 1.9 NW 32 41 17 22 1011.3 1011.3 0.0
25/04:00pm 18.7 14.0 14.8 78 2.3 NW 33 41 18 22 1011.4 1011.4 0.0
25/03:55pm 19.2 14.8 15.1 77 2.4 NW 32 39 17 21 1011.3 1011.3 0.0
25/03:30pm 19.2 14.7 15.5 79 2.2 NW 33 41 18 22 1011.5 1011.5 0.0
25/03:00pm 19.2 14.9 15.3 78 2.3 NW 32 39 17 21 1011.6 1011.6 0.0
25/02:51pm 19.2 15.2 15.3 78 2.3 NW 30 39 16 21 1011.5 1011.5 0.0
25/02:30pm 19.6 15.8 15.7 78 2.3 NW 30 39 16 21 1011.6 1011.6 0.0
25/02:14pm 19.7 15.9 15.8 78 2.3 NW 30 35 16 19 1011.7 1011.7 0.0
25/02:00pm 18.7 15.1 15.2 80 2.1 NW 28 33 15 18 1011.8 1011.8 0.0
25/01:30pm 17.9 14.3 15.2 84 1.6 NW 28 33 15 18 1012.0 1012.0 0.0
25/01:23pm 18.5 15.0 15.4 82 1.8 NW 28 33 15 18 1012.1 1012.1 0.0
25/01:00pm 18.9 16.0 15.2 79 2.2 NW 24 32 13 17 1012.4 1012.4 0.0
25/12:30pm 18.8 15.1 13.9 73 2.8 WNW 26 32 14 17 1012.4 1012.4 0.0
25/12:00pm 17.6 12.4 13.5 77 2.3 WNW 33 44 18 24 1012.6 1012.6 0.0
25/11:30am 17.8 13.0 14.1 79 2.1 NW 32 39 17 21 1012.5 1012.5 0.0
25/11:00am 18.6 13.7 13.7 73 2.8 NW 32 37 17 20 1012.4 1012.4 0.0
25/10:30am 18.6 14.5 13.9 74 2.7 WNW 28 35 15 19 1012.2 1012.2 0.0
25/10:00am 18.3 14.3 14.0 76 2.5 WNW 28 35 15 19 1012.4 1012.4 0.0
25/09:30am 17.7 15.2 14.0 79 2.1 NW 20 24 11 13 1012.5 1012.5 0.0
25/09:00am 16.9 15.2 13.6 81 1.9 NW 15 19 8 10 1012.5 1012.5 0.0
25/08:30am 16.6 15.1 13.1 80 2.0 NW 13 17 7 9 1012.4 1012.4 0.0
25/08:00am 16.4 14.4 12.6 78 2.1 WNW 15 20 8 11 1012.3 1012.3 0.0
25/07:30am 16.1 14.4 12.5 79 2.0 W 13 19 7 10 1012.2 1012.2 0.0
25/07:00am 15.7 14.4 12.5 81 1.8 W 11 15 6 8 1011.8 1011.8 0.0
25/06:30am 15.8 12.9 12.4 80 1.9 W 19 26 10 14 1011.5 1011.5 0.0
25/06:00am 15.9 11.8 11.5 75 2.4 WNW 24 30 13 16 1011.3 1011.3 0.0
25/05:30am 16.0 11.7 12.0 77 2.2 WNW 26 33 14 18 1011.2 1011.2 0.0
25/05:00am 16.1 11.1 12.3 78 2.1 WNW 30 39 16 21 1010.9 1010.9 0.0
25/04:30am 16.4 12.1 13.1 81 1.8 WNW 28 35 15 19 1010.8 1010.8 0.0
25/04:00am 16.4 12.5 13.3 82 1.7 WNW 26 32 14 17 1010.6 1010.6 0.0
25/03:30am 16.2 11.9 13.1 82 1.7 NW 28 35 15 19 1010.6 1010.6 0.0
25/03:00am 16.1 11.7 13.0 82 1.7 WNW 28 35 15 19 1010.3 1010.3 0.0
25/02:30am 16.1 12.2 13.4 84 1.5 WNW 26 35 14 19 1010.4 1010.4 0.0
25/02:00am 15.9 11.3 13.4 85 1.4 WNW 30 37 16 20 1010.3 1010.3 0.0
25/01:34am 16.0 11.0 13.3 84 1.5 NW 32 39 17 21 1010.2 1010.2 0.0
25/01:30am 16.2 11.2 13.5 84 1.5 WNW 32 37 17 20 1010.2 1010.2 0.0
25/01:11am 16.3 11.5 14.0 86 1.3 WNW 32 41 17 22 1010.1 1010.1 0.0
25/01:00am 16.3 11.7 13.4 83 1.6 WNW 30 39 16 21 1010.0 1010.0 0.0
25/12:42am 16.2 11.5 14.2 88 1.1 NW 32 37 17 20 1010.1 1010.1 0.0
25/12:32am 16.2 11.8 14.2 88 1.1 NW 30 37 16 20 1010.0 1010.0 0.0
25/12:30am 16.2 12.2 14.2 88 1.1 NW 28 37 15 20 1010.1 1010.1 0.0
25/12:00am 16.3 11.6 14.3 88 1.1 NW 32 37 17 20 1010.2 1010.2 0.0
 
Date/Time
EDT
Temp
°C
App
Temp
°C
Dew
Point
°C
Rel
Hum
%
Delta-T
°C
Wind Press
QNH
hPa
Press
MSL
hPa
Rain since
9am
mm
Dir  Spd
km/h
Gust
km/h
Spd
kts
Gust
kts
24/11:30pm 16.8 12.5 13.1 79 2.1 WNW 28 37 15 20 1010.5 1010.5 0.0
24/11:00pm 16.8 12.2 13.5 81 1.9 WNW 30 39 16 21 1010.4 1010.4 0.0
24/10:30pm 16.6 12.6 14.2 86 1.4 WNW 28 35 15 19 1010.2 1010.2 0.0
24/10:03pm 16.6 12.4 14.6 88 1.1 WNW 30 35 16 19 1010.2 1010.2 0.0
24/10:00pm 16.6 12.8 14.8 89 1.0 WNW 28 35 15 19 1010.2 1010.2 0.0
24/09:30pm 16.2 13.3 15.2 94 0.6 WNW 24 30 13 16 1009.8 1009.8 0.0
24/09:27pm 16.2 13.3 15.2 94 0.6 WNW 24 30 13 16 1009.7 1009.7 0.0
24/09:20pm 16.3 12.3 15.3 94 0.6 WNW 30 37 16 20 1009.7 1009.7 0.0
24/09:05pm 16.4 12.1 15.3 93 0.6 NW 32 43 17 23 1009.4 1009.4 0.0
24/09:00pm 16.5 11.4 14.9 90 0.9 WNW 35 43 19 23 1009.3 1009.3 0.0
24/08:30pm 17.0 11.0 14.5 85 1.4 NW 39 48 21 26 1009.0 1009.0 0.0
24/08:00pm 17.4 11.0 14.3 82 1.8 NW 41 52 22 28 1008.6 1008.6 0.0
24/07:30pm 17.5 10.5 13.8 79 2.1 NW 43 57 23 31 1008.3 1008.3 0.0
24/07:00pm 18.0 11.2 14.3 79 2.1 NW 43 54 23 29 1008.0 1008.0 0.0
24/06:30pm 18.1 12.4 14.2 78 2.2 NW 37 46 20 25 1007.7 1007.7 0.0
24/06:00pm 18.7 13.3 13.8 73 2.8 WNW 35 46 19 25 1007.4 1007.4 0.0
24/05:30pm 19.2 13.2 12.2 64 3.9 WNW 35 48 19 26 1007.1 1007.1 0.0
24/05:00pm 20.1 13.6 11.8 59 4.6 WNW 37 48 20 26 1007.1 1007.1 0.0
24/04:30pm 18.4 11.4 12.4 68 3.3 WNW 41 52 22 28 1007.0 1007.0 0.0
24/04:00pm 20.0 13.3 12.3 61 4.3 WNW 39 52 21 28 1006.9 1006.9 0.0
24/03:30pm 17.5 9.9 12.4 72 2.8 WNW 44 54 24 29 1006.9 1006.9 0.0
24/03:00pm 18.1 11.0 12.3 69 3.2 NW 41 48 22 26 1006.7 1006.7 0.0
24/02:30pm 18.7 11.2 11.0 61 4.2 WNW 41 50 22 27 1006.6 1006.6 0.0
24/02:00pm 18.9 11.3 11.7 63 4.0 NW 43 56 23 30 1006.2 1006.2 0.0
24/01:30pm 20.4 13.7 9.6 50 5.8 WNW 35 44 19 24 1006.1 1006.1 0.0
24/01:00pm 19.7 12.4 8.7 49 5.8 WNW 37 48 20 26 1005.8 1005.8 0.0
24/12:48pm 20.1 12.2 7.8 45 6.3 WNW 39 57 21 31 1005.7 1005.7 0.0
24/12:30pm 19.3 10.9 8.9 51 5.4 WNW 43 52 23 28 1005.8 1005.8 0.0
24/12:00pm 19.9 13.1 10.6 55 5.1 WNW 37 48 20 26 1005.4 1005.4 0.0
24/11:30am 19.1 11.5 10.6 58 4.6 WNW 41 48 22 26 1005.3 1005.3 0.0
24/11:00am 17.5 9.4 9.9 61 4.0 WNW 43 52 23 28 1005.0 1005.0 0.0
24/10:30am 17.7 11.0 11.0 65 3.6 WNW 37 48 20 26 1004.7 1004.7 0.0
24/10:00am 16.3 10.3 10.8 70 2.9 WNW 33 41 18 22 1004.7 1004.7 0.0
24/09:30am 16.1 10.0 10.6 70 2.9 WNW 33 41 18 22 1004.4 1004.4 0.0
24/09:00am 15.4 9.3 10.6 73 2.5 WNW 33 41 18 22 1004.2 1004.2 4.4
24/08:30am 15.4 9.0 10.8 74 2.4 WNW 35 43 19 23 1003.9 1003.9 4.4
24/08:00am 15.2 8.1 10.8 75 2.3 WNW 39 52 21 28 1003.6 1003.6 4.4
24/07:30am 14.5 7.1 9.9 74 2.4 WNW 39 48 21 26 1003.3 1003.3 4.4
24/07:00am 14.3 7.5 10.5 78 2.0 WNW 37 48 20 26 1002.8 1002.8 4.4
24/06:30am 14.1 7.7 10.7 80 1.8 WNW 35 44 19 24 1002.5 1002.5 4.4
24/06:00am 14.0 6.4 10.4 79 1.9 WNW 41 54 22 29 1002.0 1002.0 4.4
24/05:30am 14.1 6.0 10.7 80 1.8 WNW 44 56 24 30 1001.6 1001.6 4.4
24/05:00am 14.1 5.9 10.3 78 2.0 WNW 44 57 24 31 1001.3 1001.3 4.2
24/04:30am 14.0 6.9 10.8 81 1.7 WNW 39 50 21 27 1001.5 1001.5 4.2
24/04:19am 14.0 8.3 11.2 83 1.5 WNW 32 50 17 27 1001.4 1001.4 4.2
24/04:00am 13.3 6.4 10.3 82 1.6 NW 37 46 20 25 1001.6 1001.6 4.2
24/03:30am 13.3 8.0 9.7 79 1.8 WNW 28 37 15 20 1001.6 1001.6 4.0
24/03:27am 13.3 8.0 9.9 80 1.7 WNW 28 37 15 20 1001.6 1001.6 4.0
24/03:00am 11.5 8.8 8.9 84 1.3 WSW 13 15 7 8 1001.9 1001.9 4.0
24/02:30am 11.7 8.2 8.7 82 1.5 W 17 20 9 11 1001.7 1001.7 4.0
24/02:00am 13.1 7.6 9.2 77 2.0 WNW 28 35 15 19 1001.7 1001.7 4.0
24/01:30am 12.6 6.5 8.1 74 2.2 WNW 30 41 16 22 1002.0 1002.0 4.0
24/01:00am 12.5 6.0 8.0 74 2.2 WNW 32 39 17 21 1002.0 1002.0 4.0
24/12:30am 12.5 7.1 7.8 73 2.3 W 26 37 14 20 1001.8 1001.8 4.0
24/12:00am 12.2 8.3 8.5 78 1.8 W 19 30 10 16 1001.8 1001.8 4.0
 
Date/Time
EDT
Temp
°C
App
Temp
°C
Dew
Point
°C
Rel
Hum
%
Delta-T
°C
Wind Press
QNH
hPa
Press
MSL
hPa
Rain since
9am
mm
Dir  Spd
km/h
Gust
km/h
Spd
kts
Gust
kts
23/11:30pm 12.7 6.2 8.8 77 2.0 W 33 44 18 24 1001.5 1001.5 4.0
23/11:00pm 13.1 5.4 8.8 75 2.2 WNW 39 46 21 25 1001.0 1001.0 4.0
23/10:30pm 13.1 5.0 8.6 74 2.2 WNW 41 50 22 27 1000.6 1000.6 4.0
23/10:00pm 13.6 4.8 8.2 70 2.7 WNW 44 56 24 30 999.8 999.8 4.0
23/09:30pm 13.7 5.0 8.3 70 2.7 WNW 44 57 24 31 999.1 999.1 4.0
23/09:00pm 14.0 5.0 8.8 71 2.6 WNW 46 63 25 34 998.1 998.1 4.0
23/08:43pm 14.3 5.8 9.3 72 2.6 WNW 44 63 24 34 997.7 997.7 4.0
23/08:30pm 14.5 5.1 8.7 68 2.9 WNW 48 61 26 33 997.3 997.3 4.0
23/08:12pm 14.8 5.1 9.2 69 2.9 WNW 50 69 27 37 997.0 997.0 4.0
23/08:00pm 14.9 4.8 8.8 67 3.1 WNW 52 65 28 35 996.6 996.6 4.0
23/07:40pm 15.5 5.8 9.2 66 3.2 WNW 50 69 27 37 995.9 995.9 4.0
23/07:30pm 15.4 5.2 8.6 64 3.5 WNW 52 65 28 35 995.3 995.3 4.0
23/07:00pm 16.0 5.4 9.9 67 3.2 WNW 56 72 30 39 994.5 994.5 4.0
23/06:44pm 16.4 5.6 10.0 66 3.4 WNW 57 76 31 41 994.2 994.2 4.0
23/06:30pm 16.2 4.6 9.6 65 3.4 WNW 61 76 33 41 993.7 993.7 4.0
23/06:05pm 16.2 5.6 9.8 66 3.3 WNW 56 76 30 41 993.3 993.3 4.0
23/06:00pm 16.6 6.4 11.5 72 2.8 NW 56 67 30 36 993.4 993.4 4.0
23/05:55pm 16.1 6.8 10.6 70 2.9 WNW 50 67 27 36 993.3 993.3 4.0
23/05:49pm 16.1 9.4 12.3 78 2.1 WNW 39 59 21 32 993.4 993.4 4.0
23/05:30pm 14.6 6.6 12.3 86 1.3 WNW 46 59 25 32 993.5 993.5 4.0
23/05:11pm 15.0 7.3 12.1 83 1.6 WNW 44 56 24 30 993.4 993.4 3.8
23/05:00pm 14.2 6.4 12.9 92 0.7 WNW 46 57 25 31 993.5 993.5 3.6
23/04:50pm 12.6 5.3 10.3 86 1.2 WNW 39 65 21 35 993.7 993.7 3.0
23/04:49pm 14.1 7.5 11.4 84 1.4 WNW 37 65 20 35 993.6 993.6 2.2
23/04:30pm 13.9 7.4 11.6 86 1.2 WNW 37 50 20 27 993.5 993.5 2.0
23/04:23pm 13.7 6.4 11.6 87 1.1 WNW 41 52 22 28 993.5 993.5 2.0
23/04:07pm 12.8 4.9 11.4 91 0.7 W 44 63 24 34 993.8 993.8 1.4
23/04:00pm 12.5 1.7 11.1 91 0.7 W 59 83 32 45 993.5 993.5 1.2
23/03:57pm 12.3 -0.1 10.9 91 0.7 WNW 67 98 36 53 993.4 993.4 1.0
23/03:52pm 12.6 0.4 10.5 87 1.1 NW 65 98 35 53 992.8 992.8 0.6
23/03:49pm 13.8 2.9 9.6 76 2.2 NW 57 98 31 53 992.6 992.6 0.4
23/03:47pm 15.5 5.8 10.3 71 2.7 NW 52 83 28 45 992.6 992.6 0.4
23/03:30pm 17.4 8.7 11.4 68 3.3 NW 48 61 26 33 992.3 992.3 0.4
23/03:00pm 16.3 7.8 13.2 82 1.7 NNW 50 63 27 34 992.3 992.3 0.4
23/02:48pm 16.3 8.6 13.4 83 1.6 NNW 46 59 25 32 992.3 992.3 0.4
23/02:34pm 15.2 6.8 13.4 89 1.0 NNW 50 63 27 34 992.5 992.5 0.4
23/02:30pm 15.4 7.1 12.7 84 1.5 NNW 48 63 26 34 992.6 992.6 0.4
23/02:15pm 17.8 10.2 12.5 71 2.9 NNW 44 69 24 37 992.5 992.5 0.4
23/02:00pm 18.0 10.2 11.8 67 3.4 NNW 44 57 24 31 992.3 992.3 0.4
23/01:39pm 17.0 8.9 12.1 73 2.7 NNW 46 57 25 31 992.9 992.9 0.4
23/01:30pm 17.9 10.5 13.0 73 2.7 NNW 44 59 24 32 993.0 993.0 0.4
23/01:22pm 17.5 10.7 13.2 76 2.4 NNW 41 52 22 28 993.0 993.0 0.4
23/01:00pm 16.8 9.7 12.3 75 2.5 NNW 41 52 22 28 993.0 993.0 0.4

Other formats

Comma delimited format used in spreadsheet applications
http://www.bom.gov.au/fwo/IDT60801/IDT60801.95960.axf

JavaScript Object Notation format (JSON) in row-major order
http://www.bom.gov.au/fwo/IDT60801/IDT60801.95960.json

Data quality

Most of these data are generated automatically and are frequently updated. Quality checks on data are not normally performed. It is possible for incorrect values to appear. Refer to information at About Latest Weather Observations and please check the disclaimer before using these data.